Airfield :
LOGIN :

Register | Disclaimer

   EN    FR    IT 

 










Legend :    VFR   Marginal VFR   IFR   Intensive IFR   Very Intensive IFR
Visi :
Ceiling :
>= 8 km
>= 3000ft
5 to 8 km
1000 to 3000 ft
1500m to 5 km
500 to 1000 ft
800 to 1500m
200 to 500 ft
< 800m
< 200 ft
Symbols :   Thunderstorms  Fog  Heavy snow  Heavy precipitations  Wind > 20 kt
SIGMETs :     Misc.  Thunderstorms  Icing  Turbulence  Mountain Waves  Volcanic Ashes







- Airport Elevation : 41 ft


LIRE - Pratica di Mare Air Base Pomezia

CURRENT METAR :
  • 192155Z 12005KT 9999 FEW070 23/21 Q1016 RMK FEW VIS MIN 9999 WIND THR13 14005KT WIND THR31 12004KT BLU

EXPIRED METARs :
  • 192055Z 12004KT 9999 FEW070 23/22 Q1016 RMK FEW VIS MIN 9999 WIND THR13 14005KT WIND THR31 10003KT BLU
  • 191955Z 13005KT 9999 SCT070 24/22 Q1015 RMK SCT VIS MIN 9999 WIND THR13 15005KT WIND THR31 13005KT BLU

TAF TAF LIRE
Valid from the 19 at 21:00 until the 20 at 06:00 UTC


192000Z 1921/2006 02005KT 9999 SCT050
No reported NOTAMs for that airfield.



MET'MAP, your aeronautical weather chart ! - Copyright ORBIFLY December 2007 - Disclaimer

ORBIFLY MET'MAP TEAM :

Programming & Development : Alexandra Zaïnal
Concept & Development : Baudouin d'Aumeries
Co-Development & Prog : Marc-Olivier Méhu
Technical & hardware support : Manuel Goepfert

Contact : metmap@orbifly.com




SOURCES & CREDITS :

   NOAA